createdAt,value
2023-02-03T00:00:39.226Z,9.70
2023-02-03T00:03:41.561Z,10.32
2023-02-03T00:06:44.026Z,9.77
2023-02-03T00:09:46.420Z,12.05
2023-02-03T00:12:53.056Z,11.15
2023-02-03T00:15:55.457Z,15.90
2023-02-03T00:18:57.806Z,12.68
2023-02-03T00:22:00.148Z,8.98
2023-02-03T00:25:02.497Z,10.80
2023-02-03T00:28:05.827Z,11.90
2023-02-03T00:31:24.677Z,13.30
2023-02-03T00:34:30.733Z,13.27
2023-02-03T00:37:33.146Z,13.10
2023-02-03T00:40:36.627Z,9.82
2023-02-03T00:43:38.989Z,13.77
2023-02-03T00:46:41.280Z,13.15
2023-02-03T00:49:43.615Z,13.30
2023-02-03T00:52:46.022Z,13.25
2023-02-03T00:55:48.431Z,13.80
2023-02-03T00:58:50.779Z,11.05
2023-02-03T01:01:53.239Z,14.95
2023-02-03T01:04:55.614Z,13.68
2023-02-03T01:07:57.911Z,11.00
2023-02-03T01:11:00.240Z,15.35
2023-02-03T01:14:02.700Z,16.55
2023-02-03T01:17:05.602Z,16.88
2023-02-03T01:20:08.411Z,8.93
2023-02-03T01:23:10.776Z,14.77
2023-02-03T01:26:18.027Z,12.77
2023-02-03T01:29:20.423Z,12.07
2023-02-03T01:32:24.978Z,11.82
2023-02-03T01:35:27.354Z,11.15
2023-02-03T01:38:29.760Z,11.93
2023-02-03T01:41:34.736Z,10.63
2023-02-03T01:44:47.848Z,11.77
2023-02-03T01:47:59.376Z,10.23
2023-02-03T01:51:02.931Z,9.77
2023-02-03T01:54:05.871Z,9.77
2023-02-03T01:57:19.095Z,10.83
2023-02-03T02:00:21.626Z,10.00
2023-02-03T02:03:27.954Z,10.07
2023-02-03T02:06:30.312Z,10.30
2023-02-03T02:09:32.722Z,11.73
2023-02-03T02:12:35.091Z,12.90
2023-02-03T02:15:55.854Z,11.02
2023-02-03T02:19:27.053Z,12.18
2023-02-03T02:23:08.337Z,11.02
2023-02-03T02:26:22.661Z,14.73
2023-02-03T02:29:37.451Z,10.80
2023-02-03T02:32:59.053Z,11.48
2023-02-03T02:36:39.415Z,12.70
2023-02-03T02:39:57.003Z,12.65
2023-02-03T02:43:13.863Z,14.55
2023-02-03T02:46:23.476Z,17.70
2023-02-03T02:49:32.093Z,16.00
2023-02-03T02:52:36.860Z,18.25
2023-02-03T02:55:40.770Z,16.10
2023-02-03T02:58:46.653Z,12.55
2023-02-03T03:01:49.045Z,12.32
2023-02-03T03:04:52.615Z,10.43
2023-02-03T03:08:02.297Z,12.25
2023-02-03T03:11:05.055Z,14.13
2023-02-03T03:14:08.837Z,7.87
2023-02-03T03:17:13.309Z,11.50
2023-02-03T03:20:20.433Z,11.80
2023-02-03T03:23:28.507Z,9.23
2023-02-03T03:26:37.122Z,12.82
2023-02-03T03:29:44.979Z,16.10
2023-02-03T03:32:47.465Z,16.15
2023-02-03T03:36:14.209Z,15.02
2023-02-03T03:39:25.328Z,15.07
2023-02-03T03:42:41.851Z,11.77
2023-02-03T03:46:08.958Z,13.45
2023-02-03T03:49:12.591Z,13.43
2023-02-03T03:52:19.428Z,11.95
2023-02-03T03:55:22.262Z,11.80
2023-02-03T03:58:31.239Z,10.70
2023-02-03T04:01:33.882Z,11.50
2023-02-03T04:04:37.407Z,10.70
2023-02-03T04:07:43.577Z,11.23
2023-02-03T04:10:46.180Z,11.10
2023-02-03T04:13:48.569Z,13.25
2023-02-03T04:16:50.854Z,14.55
2023-02-03T04:19:53.207Z,15.60
2023-02-03T04:22:55.634Z,17.65
2023-02-03T04:25:58.060Z,14.43
2023-02-03T04:29:00.406Z,17.67
2023-02-03T04:32:02.960Z,18.75
2023-02-03T04:35:06.748Z,18.45
2023-02-03T04:41:11.368Z,17.00
2023-02-03T04:44:13.712Z,15.85
2023-02-03T04:47:16.230Z,33.17
2023-02-03T04:50:18.640Z,20.02
2023-02-03T04:53:21.087Z,16.60
2023-02-03T04:56:23.500Z,17.15
2023-02-03T04:59:25.950Z,16.13
2023-02-03T05:02:28.268Z,17.05
2023-02-03T05:05:30.650Z,16.92
2023-02-03T05:08:33.070Z,19.55
2023-02-03T05:11:35.453Z,19.38
2023-02-03T05:14:37.837Z,20.63
2023-02-03T05:17:40.446Z,58.42
2023-02-03T05:20:42.760Z,66.32
2023-02-03T05:23:45.178Z,32.00
2023-02-03T05:26:47.568Z,27.10
2023-02-03T05:29:49.992Z,27.83
2023-02-03T05:32:52.251Z,50.00
2023-02-03T05:35:54.920Z,68.03
2023-02-03T05:38:57.244Z,52.72
2023-02-03T05:41:59.548Z,23.20
2023-02-03T05:45:01.875Z,29.95
2023-02-03T05:48:04.577Z,26.52
2023-02-03T05:51:06.882Z,36.13
2023-02-03T05:54:09.966Z,26.50
2023-02-03T05:57:13.590Z,25.73
2023-02-03T06:00:16.291Z,29.60
2023-02-03T06:03:18.671Z,19.35
2023-02-03T06:06:21.218Z,20.60
2023-02-03T06:09:23.542Z,21.63
2023-02-03T06:12:28.209Z,23.52
2023-02-03T06:15:31.449Z,29.30
2023-02-03T06:18:33.764Z,19.95
2023-02-03T06:21:36.111Z,15.90
2023-02-03T06:24:38.749Z,15.25
2023-02-03T06:27:41.415Z,17.83
2023-02-03T06:30:44.071Z,15.20
2023-02-03T06:33:46.524Z,16.80
2023-02-03T06:36:49.297Z,15.63
2023-02-03T06:39:51.586Z,16.42
2023-02-03T06:42:53.926Z,17.27
2023-02-03T06:45:56.228Z,18.33
2023-02-03T06:48:58.678Z,22.50
2023-02-03T06:52:01.002Z,21.67
2023-02-03T06:55:04.127Z,22.90
2023-02-03T06:58:06.418Z,36.95
2023-02-03T07:01:08.768Z,29.15
2023-02-03T07:04:11.142Z,24.90
2023-02-03T07:07:13.659Z,25.10
2023-02-03T07:10:16.165Z,22.52
2023-02-03T07:13:18.428Z,43.45
2023-02-03T07:16:21.072Z,115.40
2023-02-03T07:19:23.445Z,36.97
2023-02-03T07:22:25.762Z,76.05
2023-02-03T07:25:28.152Z,38.33
2023-02-03T07:28:31.203Z,77.50
2023-02-03T07:31:33.876Z,72.32
2023-02-03T07:34:36.311Z,49.60
2023-02-03T07:37:38.657Z,46.40
2023-02-03T07:40:40.973Z,21.33
2023-02-03T07:43:43.309Z,24.42
2023-02-03T07:46:45.824Z,30.20
2023-02-03T07:49:48.302Z,36.25
2023-02-03T07:52:52.317Z,23.58
2023-02-03T07:55:54.610Z,25.92
2023-02-03T07:58:57.185Z,18.33
2023-02-03T08:01:59.597Z,28.27
2023-02-03T08:05:02.127Z,28.85
2023-02-03T08:08:04.683Z,22.05
2023-02-03T08:11:07.123Z,25.80
2023-02-03T08:14:09.501Z,46.35
2023-02-03T08:17:12.046Z,39.60
2023-02-03T08:20:14.378Z,95.20
2023-02-03T08:23:16.806Z,70.07
2023-02-03T08:26:19.221Z,30.40
2023-02-03T08:29:21.529Z,23.00
2023-02-03T08:32:25.026Z,52.55
2023-02-03T08:35:27.465Z,43.13
2023-02-03T08:38:30.021Z,28.40
2023-02-03T08:41:33.487Z,27.73
2023-02-03T08:44:36.158Z,23.35
2023-02-03T08:47:39.408Z,20.48
2023-02-03T08:50:44.565Z,28.55
2023-02-03T08:53:46.871Z,21.48
2023-02-03T08:56:49.208Z,22.30
2023-02-03T08:59:51.656Z,16.33
2023-02-03T09:02:54.074Z,16.88
2023-02-03T09:05:57.441Z,16.83
2023-02-03T09:09:00.047Z,20.85
2023-02-03T09:12:02.635Z,15.32
2023-02-03T09:15:05.313Z,18.70
2023-02-03T09:18:07.645Z,19.33
2023-02-03T09:21:27.466Z,22.92
2023-02-03T09:24:35.519Z,22.17
2023-02-03T09:27:37.991Z,20.58
2023-02-03T09:30:40.447Z,24.88
2023-02-03T09:33:42.843Z,19.80
2023-02-03T09:36:45.177Z,19.70
2023-02-03T09:39:49.132Z,22.40
2023-02-03T09:43:03.593Z,21.52
2023-02-03T09:46:16.676Z,23.05
2023-02-03T09:49:21.730Z,25.92
2023-02-03T09:52:26.936Z,25.50
2023-02-03T09:55:37.221Z,24.02
2023-02-03T09:58:39.618Z,28.83
2023-02-03T10:01:48.450Z,26.08
2023-02-03T10:04:56.636Z,22.10
2023-02-03T10:08:37.153Z,27.52
2023-02-03T10:11:57.644Z,20.08
2023-02-03T10:14:59.975Z,33.65
2023-02-03T10:18:14.913Z,45.88
2023-02-03T10:21:29.227Z,27.60
2023-02-03T10:24:45.126Z,33.80
2023-02-03T10:27:48.368Z,21.67
2023-02-03T10:30:56.975Z,19.10
2023-02-03T10:34:01.768Z,29.95
2023-02-03T10:37:38.903Z,22.05
2023-02-03T10:40:41.259Z,144.23
2023-02-03T10:43:52.972Z,26.95
2023-02-03T10:46:55.367Z,30.00
2023-02-03T10:49:58.898Z,39.53
2023-02-03T10:53:19.290Z,29.38
2023-02-03T10:56:31.074Z,33.70
2023-02-03T10:59:38.025Z,32.42
2023-02-03T11:02:40.452Z,59.42
2023-02-03T11:05:43.523Z,32.40
2023-02-03T11:08:51.381Z,33.28
2023-02-03T11:12:07.018Z,39.95
2023-02-03T11:15:15.761Z,40.63
2023-02-03T11:18:42.755Z,32.72
2023-02-03T11:22:03.034Z,34.72
2023-02-03T11:25:17.257Z,49.80
2023-02-03T11:28:19.774Z,28.45
2023-02-03T11:31:25.027Z,27.20
2023-02-03T11:34:38.249Z,50.83
2023-02-03T11:37:45.750Z,33.60
2023-02-03T11:41:00.323Z,31.42
2023-02-03T11:44:12.223Z,45.63
2023-02-03T11:47:17.004Z,28.13
2023-02-03T11:50:42.166Z,20.63
2023-02-03T11:53:57.871Z,18.73
2023-02-03T11:57:18.284Z,18.80
2023-02-03T12:00:43.755Z,33.10
2023-02-03T12:04:13.545Z,75.43
2023-02-03T12:07:34.440Z,18.52
2023-02-03T12:11:00.988Z,19.77
2023-02-03T12:14:36.020Z,42.30
2023-02-03T12:17:49.955Z,24.13
2023-02-03T12:21:10.192Z,25.92
2023-02-03T12:25:08.071Z,19.73
2023-02-03T12:28:33.283Z,31.70
2023-02-03T12:31:51.956Z,16.15
2023-02-03T12:35:14.334Z,22.80
2023-02-03T12:38:36.560Z,22.20
2023-02-03T12:41:42.296Z,23.98
2023-02-03T12:44:48.176Z,27.67
2023-02-03T12:47:57.390Z,18.60
2023-02-03T12:51:03.775Z,28.88
2023-02-03T12:54:33.117Z,91.80
2023-02-03T12:57:41.405Z,23.77
2023-02-03T13:00:57.180Z,17.08
2023-02-03T13:04:16.538Z,18.52
2023-02-03T13:07:39.049Z,20.15
2023-02-03T13:10:51.503Z,20.08
2023-02-03T13:13:59.814Z,26.45
2023-02-03T13:17:29.601Z,21.55
2023-02-03T13:20:36.220Z,27.25
2023-02-03T13:23:47.627Z,27.15
2023-02-03T13:26:59.332Z,25.88
2023-02-03T13:30:20.105Z,23.00
2023-02-03T13:33:31.777Z,78.53
2023-02-03T13:37:04.052Z,30.80
2023-02-03T13:40:37.485Z,25.15
2023-02-03T13:43:42.077Z,22.63
2023-02-03T13:46:48.519Z,21.23
2023-02-03T13:49:56.108Z,23.55
2023-02-03T13:53:03.784Z,21.67
2023-02-03T13:56:09.435Z,25.55
2023-02-03T13:59:14.811Z,24.48
2023-02-03T14:02:20.031Z,27.05
2023-02-03T14:05:44.424Z,28.88
2023-02-03T14:11:52.664Z,34.83
2023-02-03T14:14:55.015Z,23.35
2023-02-03T14:18:07.271Z,26.42
2023-02-03T14:21:16.893Z,30.42
2023-02-03T14:24:19.891Z,21.00
2023-02-03T14:27:25.142Z,22.23
2023-02-03T14:30:27.614Z,23.95
2023-02-03T14:33:49.318Z,21.80
2023-02-03T14:36:55.024Z,38.50
2023-02-03T14:40:00.254Z,23.08
2023-02-03T14:43:20.936Z,24.23
2023-02-03T14:46:49.316Z,26.10
2023-02-03T14:50:19.931Z,22.52
2023-02-03T14:53:43.877Z,20.88
2023-02-03T14:57:18.486Z,19.67
2023-02-03T15:00:21.538Z,29.35
2023-02-03T15:03:25.701Z,19.90
2023-02-03T15:06:42.672Z,21.13
2023-02-03T15:09:46.501Z,22.95
2023-02-03T15:12:56.410Z,31.83
2023-02-03T15:16:01.809Z,24.70
2023-02-03T15:19:10.602Z,28.80
2023-02-03T15:22:27.533Z,55.35
2023-02-03T15:25:31.419Z,48.28
2023-02-03T15:31:45.846Z,52.15
2023-02-03T15:34:50.101Z,52.00
2023-02-03T15:37:56.352Z,46.50
2023-02-03T15:40:59.399Z,44.83
2023-02-03T15:44:05.024Z,33.57
2023-02-03T15:47:19.550Z,50.67
2023-02-03T15:50:36.139Z,87.00
2023-02-03T15:53:49.690Z,56.95
2023-02-03T15:56:57.576Z,87.72
2023-02-03T16:00:02.320Z,86.75
2023-02-03T16:03:29.187Z,28.77
2023-02-03T16:06:39.356Z,56.90
2023-02-03T16:09:41.994Z,68.60
2023-02-03T16:12:44.296Z,65.47
2023-02-03T16:16:01.703Z,66.60
2023-02-03T16:19:07.586Z,92.93
2023-02-03T16:22:31.658Z,76.53
2023-02-03T16:28:56.566Z,69.70
2023-02-03T16:32:18.182Z,80.57
2023-02-03T16:35:39.362Z,64.55
2023-02-03T16:39:10.237Z,37.75
2023-02-03T16:42:39.369Z,36.17
2023-02-03T16:46:00.319Z,35.38
2023-02-03T16:49:21.494Z,38.65
2023-02-03T16:52:23.831Z,39.88
2023-02-03T16:55:26.194Z,39.38
2023-02-03T16:58:28.759Z,41.53
2023-02-03T17:01:31.085Z,39.83
2023-02-03T17:04:33.818Z,35.80
2023-02-03T17:07:36.114Z,35.72
2023-02-03T17:10:40.450Z,37.85
2023-02-03T17:13:42.862Z,41.45
2023-02-03T17:16:45.351Z,38.58
2023-02-03T17:19:47.701Z,46.67
2023-02-03T17:22:53.440Z,38.53
2023-02-03T17:25:55.884Z,43.85
2023-02-03T17:29:03.249Z,33.38
2023-02-03T17:32:06.053Z,33.13
2023-02-03T17:35:08.662Z,40.38
2023-02-03T17:38:12.226Z,35.03
2023-02-03T17:54:41.938Z,46.42
2023-02-03T17:57:44.302Z,50.30
2023-02-03T18:00:46.630Z,35.80
2023-02-03T18:03:50.422Z,27.05
2023-02-03T18:06:54.578Z,35.72
2023-02-03T18:09:56.902Z,30.83
2023-02-03T18:12:59.294Z,54.70
2023-02-03T18:16:01.612Z,60.20
2023-02-03T18:19:06.621Z,43.58
2023-02-03T18:22:09.011Z,49.58
2023-02-03T18:25:12.743Z,115.03
2023-02-03T18:28:16.096Z,72.38
2023-02-03T18:31:18.626Z,23.13
2023-02-03T18:34:21.029Z,20.30
2023-02-03T18:37:23.413Z,18.95
2023-02-03T18:40:25.856Z,21.55
2023-02-03T18:43:28.244Z,34.08
2023-02-03T18:46:32.417Z,26.35
2023-02-03T18:49:36.541Z,15.43
2023-02-03T18:52:39.060Z,18.30
2023-02-03T18:55:44.754Z,21.45
2023-02-03T18:58:48.017Z,22.08
2023-02-03T19:01:51.136Z,16.77
2023-02-03T19:04:53.472Z,41.97
2023-02-03T19:07:55.852Z,35.53
2023-02-03T19:10:58.233Z,25.85
2023-02-03T19:14:00.694Z,27.77
2023-02-03T19:17:04.714Z,23.75
2023-02-03T19:20:07.753Z,19.75
2023-02-03T19:23:12.109Z,17.47
2023-02-03T19:26:14.498Z,17.70
2023-02-03T19:29:17.220Z,17.58
2023-02-03T19:32:19.594Z,15.20
2023-02-03T19:35:22.109Z,20.42
2023-02-03T19:38:24.475Z,18.15
2023-02-03T19:41:27.704Z,16.35
2023-02-03T19:44:30.050Z,20.83
2023-02-03T19:47:32.480Z,20.88
2023-02-03T19:50:36.886Z,22.27
2023-02-03T19:53:39.312Z,16.13
2023-02-03T19:56:42.644Z,16.00
2023-02-03T19:59:45.020Z,12.20
2023-02-03T20:02:47.637Z,16.23
2023-02-03T20:05:52.978Z,15.95
2023-02-03T20:09:02.027Z,14.00
2023-02-03T20:12:04.485Z,18.15
2023-02-03T20:15:07.368Z,19.13
2023-02-03T20:18:09.771Z,16.10
2023-02-03T20:21:13.663Z,15.65
2023-02-03T20:27:19.202Z,13.68
2023-02-03T20:30:21.626Z,13.43
2023-02-03T20:33:27.585Z,12.20
2023-02-03T20:36:30.681Z,13.50
2023-02-03T20:39:33.082Z,13.88
2023-02-03T20:42:35.466Z,15.85
2023-02-03T20:45:38.376Z,20.13
2023-02-03T20:48:41.016Z,13.20
2023-02-03T20:51:43.477Z,12.65
2023-02-03T20:54:46.373Z,12.23
2023-02-03T20:57:51.584Z,12.30
2023-02-03T21:00:57.343Z,12.68
2023-02-03T21:04:18.172Z,11.77
2023-02-03T21:07:21.205Z,12.13
2023-02-03T21:10:25.159Z,10.63
2023-02-03T21:13:30.859Z,11.77
2023-02-03T21:16:39.358Z,13.10
2023-02-03T21:19:42.504Z,10.70
2023-02-03T21:22:44.884Z,9.70
2023-02-03T21:25:48.208Z,14.75
2023-02-03T21:28:53.066Z,11.52
2023-02-03T21:31:56.116Z,12.55
2023-02-03T21:34:58.686Z,15.48
2023-02-03T21:38:02.820Z,14.90
2023-02-03T21:41:21.253Z,13.30
2023-02-03T21:44:33.239Z,15.80
2023-02-03T21:47:35.617Z,16.52
2023-02-03T21:50:42.222Z,12.02
2023-02-03T21:53:59.246Z,14.35
2023-02-03T21:57:01.848Z,12.68
2023-02-03T22:00:36.374Z,12.75
2023-02-03T22:03:43.225Z,14.07
2023-02-03T22:06:54.098Z,14.50
2023-02-03T22:09:56.450Z,13.00
2023-02-03T22:12:58.809Z,11.80
2023-02-03T22:16:01.603Z,14.73
2023-02-03T22:19:04.160Z,12.63
2023-02-03T22:22:06.584Z,12.00
2023-02-03T22:25:09.167Z,11.10
2023-02-03T22:28:11.624Z,11.27
2023-02-03T22:31:14.534Z,15.80
2023-02-03T22:34:17.373Z,13.67
2023-02-03T22:37:19.791Z,10.63
2023-02-03T22:40:22.220Z,14.55
2023-02-03T22:43:24.639Z,14.50
2023-02-03T22:46:27.103Z,10.95
2023-02-03T22:49:29.472Z,11.98
2023-02-03T22:52:32.067Z,14.70
2023-02-03T22:55:34.361Z,15.10
2023-02-03T22:58:36.753Z,15.40
2023-02-03T23:01:39.104Z,13.02
2023-02-03T23:04:41.453Z,14.45
2023-02-03T23:07:45.136Z,14.10
2023-02-03T23:10:48.343Z,14.55
2023-02-03T23:13:50.764Z,12.95
2023-02-03T23:16:53.258Z,16.83
2023-02-03T23:19:55.582Z,19.25
2023-02-03T23:22:57.927Z,14.20
2023-02-03T23:26:00.258Z,17.35
2023-02-03T23:29:02.637Z,14.60
2023-02-03T23:32:05.846Z,14.95
2023-02-03T23:35:27.980Z,10.35
2023-02-03T23:38:30.355Z,13.63
2023-02-03T23:41:32.898Z,16.30
2023-02-03T23:44:35.294Z,17.67
2023-02-03T23:47:37.738Z,11.10
2023-02-03T23:50:40.096Z,11.52
2023-02-03T23:53:42.431Z,11.50
2023-02-03T23:56:44.861Z,15.20
2023-02-03T23:59:47.289Z,10.38
